Time;durP1;ratioP1;P1;durP2;ratioP2;P2;SDS_P1;SDS_P2;PMS_P1;PMS_P2;Temp;Humidity;BMP_temperature;BMP_pressure;BME280_temperature;BME280_humidity;BME280_pressure;Samples;Min_cycle;Max_cycle;Signal;HPM_P1;HPM_P2
2022/07/06 00:00:33;;;;;;;8.13;1.98;;;13.20;99.90;;;;;;4891590;29;20083;-89
2022/07/06 00:02:59;;;;;;;5.85;1.65;;;13.10;99.90;;;;;;4891638;29;20059;-89
2022/07/06 00:05:25;;;;;;;6.55;1.80;;;13.20;99.90;;;;;;4839302;29;20077;-89
2022/07/06 00:07:51;;;;;;;6.38;1.80;;;13.10;99.90;;;;;;4861722;29;20052;-89
2022/07/06 00:10:16;;;;;;;5.05;2.17;;;13.10;99.90;;;;;;4894850;29;20048;-89
2022/07/06 00:12:42;;;;;;;10.13;2.17;;;13.10;99.90;;;;;;4863965;29;20487;-89
2022/07/06 00:15:08;;;;;;;35.80;3.17;;;13.10;99.90;;;;;;4879396;29;20040;-87
2022/07/06 00:17:34;;;;;;;8.70;1.50;;;13.10;99.90;;;;;;4832598;29;20135;-88
2022/07/06 00:20:00;;;;;;;5.90;1.42;;;13.00;99.90;;;;;;4870588;29;20051;-88
2022/07/06 00:22:25;;;;;;;698.78;70.80;;;13.10;99.90;;;;;;4875218;29;20100;-88
2022/07/06 00:24:51;;;;;;;11.15;2.47;;;13.10;99.90;;;;;;4865865;29;20044;-88
2022/07/06 00:27:17;;;;;;;5.60;1.70;;;13.10;99.90;;;;;;4893467;29;20045;-88
2022/07/06 00:29:43;;;;;;;48.60;3.45;;;13.10;99.90;;;;;;4892779;29;20051;-88
2022/07/06 00:32:12;;;;;;;270.63;25.83;;;13.10;99.90;;;;;;4866850;29;20043;-88
2022/07/06 00:34:39;;;;;;;5.60;1.60;;;13.10;99.90;;;;;;4881799;29;20284;-88
2022/07/06 00:37:06;;;;;;;77.63;5.50;;;13.00;99.90;;;;;;4897542;29;20549;-88
2022/07/06 00:39:33;;;;;;;4.40;1.20;;;13.00;99.90;;;;;;4877769;29;20528;-88
2022/07/06 00:41:59;;;;;;;18.63;1.92;;;13.00;99.90;;;;;;4876100;29;20048;-89
2022/07/06 00:44:24;;;;;;;6.13;1.67;;;13.00;99.90;;;;;;4892213;29;20119;-89
2022/07/06 00:46:50;;;;;;;6.47;1.88;;;13.00;99.90;;;;;;4878755;29;20791;-88
2022/07/06 00:52:00;;;;;;;6.85;1.63;;;13.00;99.90;;;;;;4875714;29;20059;-89
2022/07/06 00:54:30;;;;;;;92.43;54.53;;;13.00;99.90;;;;;;4871708;29;20053;-88
2022/07/06 00:56:55;;;;;;;19.80;2.00;;;12.90;99.90;;;;;;4902529;29;20066;-89
2022/07/06 00:59:23;;;;;;;9.32;1.77;;;13.00;99.90;;;;;;4877182;29;20135;-88
2022/07/06 01:01:49;;;;;;;8.02;2.67;;;13.00;99.90;;;;;;4901026;29;20104;-88
2022/07/06 01:04:14;;;;;;;5.50;1.70;;;13.00;99.90;;;;;;4893792;29;20079;-89
2022/07/06 01:06:41;;;;;;;2.95;1.38;;;13.00;99.90;;;;;;4869373;29;20049;-88
2022/07/06 01:09:06;;;;;;;6.45;1.92;;;13.00;99.90;;;;;;4891219;29;20119;-89
2022/07/06 01:11:32;;;;;;;7.75;1.60;;;13.00;99.90;;;;;;4882728;29;20381;-89
2022/07/06 01:14:00;;;;;;;6.00;1.80;;;13.00;99.90;;;;;;4880838;29;20052;-89
2022/07/06 01:16:26;;;;;;;4.20;1.63;;;13.00;99.90;;;;;;4892217;29;20091;-88
2022/07/06 01:18:52;;;;;;;8.65;2.20;;;13.00;99.90;;;;;;4855000;29;20486;-89
2022/07/06 01:21:17;;;;;;;9.93;1.85;;;13.00;99.90;;;;;;4872790;29;20049;-89
2022/07/06 01:23:45;;;;;;;3.63;1.42;;;13.00;99.90;;;;;;4876037;29;20062;-88
2022/07/06 01:26:20;;;;;;;8.20;2.05;;;13.00;99.90;;;;;;4884828;29;20032;-88
2022/07/06 01:28:50;;;;;;;4.40;1.60;;;13.00;99.90;;;;;;4890566;29;20044;-89
2022/07/06 01:31:22;;;;;;;4.40;1.30;;;13.00;99.90;;;;;;4893505;29;20052;-89
2022/07/06 01:33:53;;;;;;;6.68;1.30;;;13.00;99.90;;;;;;4877405;29;20092;-89
2022/07/06 01:36:19;;;;;;;8.80;1.92;;;13.00;99.90;;;;;;4873536;29;20061;-88
2022/07/06 01:38:53;;;;;;;6.90;1.50;;;13.00;99.90;;;;;;4896046;29;20527;-88
2022/07/06 01:41:19;;;;;;;5.60;1.75;;;13.00;99.90;;;;;;4879090;29;20052;-88
2022/07/06 01:43:46;;;;;;;6.13;1.60;;;13.00;99.90;;;;;;4880060;29;20084;-89
2022/07/06 01:46:12;;;;;;;12.05;1.55;;;13.00;99.90;;;;;;4897117;29;20682;-88
2022/07/06 01:48:38;;;;;;;3.50;1.40;;;13.00;99.90;;;;;;4896136;29;20048;-89
2022/07/06 01:51:04;;;;;;;5.40;1.80;;;13.00;99.90;;;;;;4880064;29;20068;-89
2022/07/06 01:53:30;;;;;;;6.88;1.70;;;12.90;99.90;;;;;;4874125;29;20102;-88
2022/07/06 01:55:56;;;;;;;6.25;1.55;;;12.90;99.90;;;;;;4889813;29;20044;-89
2022/07/06 01:58:22;;;;;;;6.45;1.70;;;12.90;99.90;;;;;;4879309;29;20053;-89
2022/07/06 02:00:48;;;;;;;6.28;1.80;;;12.80;99.90;;;;;;4874516;29;20656;-88
2022/07/06 02:03:14;;;;;;;8.63;2.00;;;12.90;99.90;;;;;;4911897;29;20099;-88
2022/07/06 02:05:40;;;;;;;3.53;1.50;;;12.80;99.90;;;;;;4880205;29;20132;-88
2022/07/06 02:08:05;;;;;;;5.68;1.58;;;12.80;99.90;;;;;;4879683;29;20044;-88
2022/07/06 02:10:31;;;;;;;6.32;1.58;;;12.80;99.90;;;;;;4880946;29;20494;-88
2022/07/06 02:12:57;;;;;;;2.83;1.42;;;12.80;99.90;;;;;;4883009;29;20047;-87
2022/07/06 02:15:22;;;;;;;5.82;1.40;;;12.80;99.90;;;;;;4896059;29;20048;-88
2022/07/06 02:17:48;;;;;;;4.80;1.55;;;12.80;99.90;;;;;;4865142;29;20080;-88
2022/07/06 02:20:14;;;;;;;7.57;1.70;;;12.80;99.90;;;;;;4895851;29;20062;-88
2022/07/06 02:22:39;;;;;;;4.10;1.90;;;12.80;99.90;;;;;;4878745;29;20131;-89
2022/07/06 02:25:05;;;;;;;5.15;1.80;;;12.80;99.90;;;;;;4864660;29;20063;-88
2022/07/06 02:27:31;;;;;;;5.80;1.63;;;12.80;99.90;;;;;;4847852;29;20060;-88
2022/07/06 02:29:57;;;;;;;4.13;1.67;;;12.90;99.90;;;;;;4900151;29;20059;-88
2022/07/06 02:32:23;;;;;;;7.63;2.38;;;12.90;99.90;;;;;;4888714;29;20051;-88
2022/07/06 02:34:48;;;;;;;8.65;2.15;;;12.90;99.90;;;;;;4882422;29;20498;-89
2022/07/06 02:37:14;;;;;;;5.28;1.58;;;12.90;99.90;;;;;;4878320;29;20085;-87
2022/07/06 02:39:40;;;;;;;5.18;1.50;;;12.90;99.90;;;;;;4879026;29;20045;-88
2022/07/06 02:42:06;;;;;;;9.05;2.63;;;13.00;99.90;;;;;;4874737;29;20044;-88
2022/07/06 02:44:31;;;;;;;8.45;2.15;;;13.00;99.90;;;;;;4882712;29;20044;-88
2022/07/06 02:46:57;;;;;;;4.07;1.70;;;13.00;99.90;;;;;;4901078;29;20056;-88
2022/07/06 02:49:23;;;;;;;6.65;1.63;;;13.00;99.90;;;;;;4880528;29;20048;-90
2022/07/06 02:51:48;;;;;;;5.63;1.65;;;13.00;99.90;;;;;;4884093;29;20063;-88
2022/07/06 02:54:14;;;;;;;5.47;1.38;;;13.10;99.90;;;;;;4880205;29;20132;-88
2022/07/06 02:56:40;;;;;;;4.18;1.40;;;13.10;99.00;;;;;;4894869;29;20087;-88
2022/07/06 02:59:05;;;;;;;6.45;1.40;;;13.10;97.50;;;;;;4849412;29;20088;-88
2022/07/06 03:01:31;;;;;;;4.53;1.48;;;13.10;95.90;;;;;;4884218;29;20123;-88
2022/07/06 03:03:57;;;;;;;6.57;1.55;;;13.10;95.00;;;;;;4881958;29;20139;-88
2022/07/06 03:06:22;;;;;;;4.32;1.60;;;13.10;93.90;;;;;;4864599;29;20041;-88
2022/07/06 03:08:48;;;;;;;4.32;1.30;;;13.10;93.90;;;;;;4866656;29;20081;-87
2022/07/06 03:11:14;;;;;;;3.35;1.60;;;13.10;94.10;;;;;;4872530;29;20053;-87
2022/07/06 03:13:39;;;;;;;3.85;1.48;;;13.10;95.10;;;;;;4862441;29;20045;-86
2022/07/06 03:16:05;;;;;;;9.13;2.05;;;13.10;95.00;;;;;;4857239;29;20048;-88
2022/07/06 03:18:31;;;;;;;4.75;1.42;;;13.10;95.80;;;;;;4894627;29;20075;-88
2022/07/06 03:20:56;;;;;;;6.05;1.40;;;13.10;95.50;;;;;;4849021;29;20052;-88
2022/07/06 03:23:22;;;;;;;5.88;1.50;;;13.10;94.80;;;;;;4851075;29;20060;-88
2022/07/06 03:25:48;;;;;;;7.65;1.63;;;13.10;94.30;;;;;;4846328;29;20052;-88
2022/07/06 03:28:14;;;;;;;4.47;1.20;;;13.20;92.90;;;;;;4865003;29;20045;-89
2022/07/06 03:30:40;;;;;;;7.75;1.45;;;13.20;92.10;;;;;;4867310;29;20048;-88
2022/07/06 03:33:05;;;;;;;8.10;2.33;;;13.20;89.40;;;;;;4845648;29;20048;-88
2022/07/06 03:35:31;;;;;;;4.72;1.45;;;13.20;86.40;;;;;;4865551;29;20049;-88
2022/07/06 03:37:57;;;;;;;2.83;1.00;;;13.20;83.60;;;;;;4881454;29;20045;-88
2022/07/06 03:40:22;;;;;;;6.93;1.42;;;13.20;82.20;;;;;;4849024;29;20079;-88
2022/07/06 03:42:48;;;;;;;6.85;1.23;;;13.20;80.00;;;;;;4862819;29;20079;-88
2022/07/06 03:45:14;;;;;;;6.22;1.48;;;13.20;82.00;;;;;;4869175;29;20120;-88
2022/07/06 03:47:39;;;;;;;5.20;1.38;;;13.20;83.00;;;;;;4881173;29;20482;-88
2022/07/06 03:50:06;;;;;;;3.83;1.23;;;13.10;84.30;;;;;;4862515;29;20063;-87
2022/07/06 03:52:31;;;;;;;6.38;1.70;;;13.10;87.30;;;;;;4877627;29;20128;-88
2022/07/06 03:54:57;;;;;;;6.15;1.30;;;13.00;92.00;;;;;;4846680;29;20135;-88
2022/07/06 03:57:23;;;;;;;6.07;1.42;;;13.00;93.10;;;;;;4878232;29;20142;-87
2022/07/06 03:59:48;;;;;;;6.50;1.52;;;12.90;95.20;;;;;;4871394;29;20076;-87
2022/07/06 04:02:14;;;;;;;8.15;1.92;;;12.90;98.10;;;;;;4881460;29;20067;-87
2022/07/06 04:04:40;;;;;;;3.88;1.15;;;12.80;99.30;;;;;;4878634;29;20071;-88
2022/07/06 04:07:05;;;;;;;4.78;1.30;;;12.80;99.90;;;;;;4862651;29;20104;-88
2022/07/06 04:09:31;;;;;;;4.25;1.50;;;12.70;99.90;;;;;;4878467;29;20100;-88
2022/07/06 04:11:56;;;;;;;5.30;2.10;;;12.70;99.90;;;;;;4844717;29;20052;-88
2022/07/06 04:14:22;;;;;;;5.82;1.45;;;12.80;99.90;;;;;;4871130;29;20059;-88
2022/07/06 04:16:48;;;;;;;4.25;1.23;;;12.70;99.90;;;;;;4867868;29;20057;-87
2022/07/06 04:19:14;;;;;;;4.88;1.30;;;12.70;99.90;;;;;;4875173;29;20052;-88
2022/07/06 04:21:40;;;;;;;4.00;1.30;;;12.60;99.90;;;;;;4893587;29;20052;-88
2022/07/06 04:24:06;;;;;;;5.13;1.35;;;12.60;99.90;;;;;;4843850;29;20486;-88
2022/07/06 04:26:31;;;;;;;6.35;1.15;;;12.50;99.90;;;;;;4860274;29;20041;-88
2022/07/06 04:28:57;;;;;;;6.22;1.20;;;12.50;99.90;;;;;;4847292;29;20112;-88
2022/07/06 04:31:22;;;;;;;5.25;1.15;;;12.50;99.90;;;;;;4870637;29;20051;-87
2022/07/06 04:33:48;;;;;;;4.60;1.38;;;12.50;99.90;;;;;;4880010;29;20550;-88
2022/07/06 04:36:14;;;;;;;6.18;1.13;;;12.40;99.90;;;;;;4876726;29;20072;-88
2022/07/06 04:38:39;;;;;;;4.40;1.42;;;12.40;99.90;;;;;;4847576;29;20060;-88
2022/07/06 04:41:05;;;;;;;7.00;1.40;;;12.40;99.90;;;;;;4850457;29;20049;-89
2022/07/06 04:43:31;;;;;;;3.90;1.35;;;12.40;99.90;;;;;;4860099;29;20525;-89
2022/07/06 04:45:57;;;;;;;7.30;1.92;;;12.50;99.90;;;;;;4877159;29;20056;-89
2022/07/06 04:48:22;;;;;;;7.35;1.73;;;12.50;99.90;;;;;;4869230;29;20412;-88
2022/07/06 04:50:48;;;;;;;5.70;1.40;;;12.50;99.90;;;;;;4848500;29;20112;-89
2022/07/06 04:53:13;;;;;;;5.05;1.20;;;12.50;99.90;;;;;;4879032;29;20068;-90
2022/07/06 04:55:39;;;;;;;4.72;1.20;;;12.60;99.90;;;;;;4880608;29;20506;-88
2022/07/06 04:58:05;;;;;;;4.00;1.17;;;12.60;99.90;;;;;;4899865;29;20075;-87
2022/07/06 05:00:31;;;;;;;4.38;1.13;;;12.70;99.90;;;;;;4894296;29;20047;-88
2022/07/06 05:02:57;;;;;;;5.75;1.70;;;12.80;99.90;;;;;;4862193;29;20056;-88
2022/07/06 05:05:22;;;;;;;6.95;2.00;;;12.90;95.90;;;;;;4894717;29;20052;-88
2022/07/06 05:07:48;;;;;;;4.57;1.50;;;13.10;91.10;;;;;;4882581;29;20041;-88
2022/07/06 05:10:14;;;;;;;3.38;1.30;;;13.20;81.20;;;;;;4893610;29;20052;-86
2022/07/06 05:12:40;;;;;;;3.58;1.75;;;13.40;70.40;;;;;;4863002;29;20136;-86
2022/07/06 05:15:07;;;;;;;6.00;1.02;;;13.60;47.40;;;;;;4877996;29;20502;-90
2022/07/06 05:17:32;;;;;;;4.45;0.82;;;13.80;29.60;;;;;;4879261;29;20052;-90
2022/07/06 05:19:58;;;;;;;8.15;1.10;;;13.90;19.30;;;;;;4878722;29;20407;-89
2022/07/06 05:22:24;;;;;;;4.40;1.10;;;14.10;7.10;;;;;;4891891;29;20056;-90
2022/07/06 05:24:50;;;;;;;7.20;1.20;;;14.20;1.00;;;;;;4895788;29;20060;-90
2022/07/06 05:27:16;;;;;;;2.53;0.70;;;14.30;1.00;;;;;;4891357;29;20040;-90
2022/07/06 05:29:42;;;;;;;3.90;0.77;;;14.40;1.00;;;;;;4880160;29;20052;-90
2022/07/06 05:32:08;;;;;;;4.70;0.90;;;14.40;1.00;;;;;;4908860;29;20055;-90
2022/07/06 05:34:35;;;;;;;6.82;1.20;;;14.50;1.00;;;;;;4877515;29;20044;-90
2022/07/06 05:37:01;;;;;;;4.43;1.10;;;14.60;1.00;;;;;;4876034;29;20959;-90
2022/07/06 05:39:26;;;;;;;2.20;0.77;;;14.70;1.00;;;;;;4891150;29;20055;-91
2022/07/06 05:41:52;;;;;;;5.53;0.73;;;14.80;1.00;;;;;;4897242;29;20049;-90
2022/07/06 05:44:17;;;;;;;5.47;0.82;;;14.90;1.00;;;;;;4866515;29;20232;-90
2022/07/06 05:46:43;;;;;;;3.78;1.27;;;14.90;1.00;;;;;;4880542;29;20463;-90
2022/07/06 05:51:53;;;;;;;3.70;0.57;;;15.10;1.00;;;;;;4880813;29;20063;-91
2022/07/06 05:54:19;;;;;;;7.65;1.13;;;15.10;1.00;;;;;;4866898;29;20048;-90
2022/07/06 05:56:44;;;;;;;8.45;1.38;;;15.20;1.00;;;;;;4885312;29;20064;-88
2022/07/06 05:59:10;;;;;;;5.93;0.93;;;15.30;1.00;;;;;;4894883;29;20081;-90
2022/07/06 06:01:36;;;;;;;3.75;0.80;;;15.40;1.00;;;;;;4864107;29;20052;-90
2022/07/06 06:04:01;;;;;;;6.97;0.90;;;15.40;1.00;;;;;;4879960;29;20056;-90
2022/07/06 06:06:27;;;;;;;4.47;0.68;;;15.40;1.00;;;;;;4895283;29;20120;-90
2022/07/06 06:08:53;;;;;;;8.13;1.00;;;15.40;1.00;;;;;;4895886;29;20041;-90
2022/07/06 06:11:18;;;;;;;7.20;1.10;;;15.40;1.00;;;;;;4894994;29;20053;-90
2022/07/06 06:13:44;;;;;;;4.00;0.95;;;15.40;1.00;;;;;;4853798;29;20398;-90
2022/07/06 06:16:10;;;;;;;5.80;0.93;;;15.30;1.00;;;;;;4871493;29;20071;-90
2022/07/06 06:18:36;;;;;;;5.18;0.75;;;15.30;1.00;;;;;;4872312;29;20088;-90
2022/07/06 06:21:01;;;;;;;2.63;0.60;;;15.30;1.00;;;;;;4895147;29;20040;-89
2022/07/06 06:23:27;;;;;;;8.88;0.93;;;15.30;1.00;;;;;;4882556;29;20048;-90
2022/07/06 06:25:53;;;;;;;4.60;1.17;;;15.20;1.00;;;;;;4882421;29;20044;-90
2022/07/06 06:28:18;;;;;;;3.47;0.65;;;15.30;1.00;;;;;;4851518;29;20060;-91
2022/07/06 06:30:44;;;;;;;6.95;0.90;;;15.30;1.00;;;;;;4866596;29;20044;-91
2022/07/06 06:33:18;;;;;;;3.10;0.88;;;15.40;1.00;;;;;;4897819;29;20084;-92
2022/07/06 06:35:44;;;;;;;3.90;0.70;;;15.60;1.00;;;;;;4898285;29;20453;-90
2022/07/06 06:38:10;;;;;;;4.32;0.82;;;15.80;1.00;;;;;;4893397;29;20044;-91
2022/07/06 06:40:36;;;;;;;4.07;1.27;;;16.00;99.90;;;;;;4867520;29;20065;-90
2022/07/06 06:43:01;;;;;;;6.03;0.75;;;16.20;99.90;;;;;;4881566;29;20044;-90
2022/07/06 06:45:27;;;;;;;6.05;0.70;;;16.30;1.00;;;;;;4881057;29;20446;-89
2022/07/06 06:47:52;;;;;;;4.32;0.63;;;16.40;99.90;;;;;;4864966;29;20048;-90
2022/07/06 06:50:18;;;;;;;3.33;0.40;;;16.40;99.90;;;;;;4875627;29;20076;-90
2022/07/06 06:52:44;;;;;;;3.97;1.25;;;16.40;99.90;;;;;;4844947;29;20046;-90
2022/07/06 06:55:10;;;;;;;3.10;0.50;;;16.50;99.90;;;;;;4828672;29;20049;-89
2022/07/06 06:57:36;;;;;;;5.18;1.10;;;16.50;99.90;;;;;;4832244;29;20097;-91
2022/07/06 07:00:04;;;;;;;5.82;0.60;;;16.50;99.90;;;;;;4841935;29;20105;-90
2022/07/06 07:02:30;;;;;;;3.08;0.70;;;16.40;99.90;;;;;;4847033;29;20149;-91
2022/07/06 07:04:56;;;;;;;6.35;1.00;;;16.40;99.90;;;;;;4862139;29;20113;-90
2022/07/06 07:07:21;;;;;;;7.20;1.00;;;16.40;99.90;;;;;;4836147;29;20081;-89
2022/07/06 07:09:47;;;;;;;3.78;0.73;;;16.50;99.90;;;;;;4861090;29;20065;-90
2022/07/06 07:12:14;;;;;;;1.85;0.47;;;16.60;99.90;;;;;;4862081;29;20111;-91
2022/07/06 07:14:40;;;;;;;2.22;0.70;;;16.60;99.90;;;;;;4870411;29;20052;-91
2022/07/06 07:17:06;;;;;;;7.65;1.10;;;16.70;99.90;;;;;;4848609;29;20053;-90
2022/07/06 07:19:32;;;;;;;4.53;0.70;;;16.80;99.90;;;;;;4846500;29;20054;-89
2022/07/06 07:21:57;;;;;;;4.13;0.65;;;16.90;99.90;;;;;;4844374;29;20097;-89
2022/07/06 07:24:23;;;;;;;4.57;0.55;;;17.00;99.90;;;;;;4833319;29;20410;-90
2022/07/06 07:26:49;;;;;;;5.22;0.60;;;17.10;1.00;;;;;;4877367;29;20060;-90
2022/07/06 07:29:14;;;;;;;2.58;0.60;;;17.20;99.90;;;;;;4848691;29;20092;-89
2022/07/06 07:31:40;;;;;;;6.05;0.60;;;17.30;1.00;;;;;;4838865;29;20444;-89
2022/07/06 07:34:06;;;;;;;3.58;0.60;;;17.30;99.90;;;;;;4862527;29;20452;-90
2022/07/06 07:36:32;;;;;;;1999.90;999.90;;;17.60;1.00;;;;;;4846421;29;20055;-90
2022/07/06 07:38:57;;;;;;;184.35;44.20;;;18.10;1.00;;;;;;4862251;29;20234;-89
2022/07/06 07:41:23;;;;;;;7.15;1.25;;;18.40;99.90;;;;;;4846659;29;20128;-89
2022/07/06 07:43:49;;;;;;;4.38;0.68;;;18.80;99.90;;;;;;4832014;29;20132;-89
2022/07/06 07:46:15;;;;;;;2.22;0.60;;;18.90;99.90;;;;;;4831529;29;20055;-88
2022/07/06 07:48:40;;;;;;;5.55;0.60;;;19.00;99.90;;;;;;4813441;29;20399;-90
2022/07/06 07:51:06;;;;;;;10.40;0.68;;;19.20;1.00;;;;;;4859813;29;20132;-89
2022/07/06 07:53:32;;;;;;;4.60;0.98;;;19.40;99.90;;;;;;4852892;29;20132;-90
2022/07/06 07:55:57;;;;;;;7.60;0.85;;;19.60;99.90;;;;;;4874822;29;20048;-90
2022/07/06 07:58:23;;;;;;;4.57;0.55;;;19.90;99.90;;;;;;4874129;29;20059;-89
2022/07/06 08:00:49;;;;;;;3.05;0.82;;;20.40;99.90;;;;;;4889355;29;20079;-90
2022/07/06 08:03:14;;;;;;;3.55;0.75;;;21.00;99.90;;;;;;4893959;29;20068;-89
2022/07/06 08:05:40;;;;;;;3.15;0.77;;;21.60;99.90;;;;;;4864499;29;20052;-90
2022/07/06 08:08:06;;;;;;;3.20;0.57;;;21.70;99.90;;;;;;4868828;29;20115;-89
2022/07/06 08:10:31;;;;;;;5.03;0.75;;;21.30;99.90;;;;;;4882655;29;20061;-90
2022/07/06 08:12:57;;;;;;;7.65;0.70;;;20.60;99.90;;;;;;4880872;29;20060;-88
2022/07/06 08:15:23;;;;;;;3.80;0.40;;;19.80;99.90;;;;;;4879479;29;20088;-90
2022/07/06 08:17:49;;;;;;;3.15;0.40;;;19.00;99.90;;;;;;4891318;29;20079;-92
2022/07/06 08:20:14;;;;;;;4.55;0.52;;;18.40;99.90;;;;;;4879858;29;20161;-89
2022/07/06 08:22:42;;;;;;;3.25;0.95;;;18.20;99.90;;;;;;4868333;29;20099;-90
2022/07/06 08:25:08;;;;;;;4.70;0.65;;;18.30;99.90;;;;;;4887914;29;20049;-90
2022/07/06 08:27:34;;;;;;;3.97;1.15;;;18.40;99.90;;;;;;4893891;29;20048;-90
2022/07/06 08:30:00;;;;;;;2.97;0.43;;;18.40;99.90;;;;;;4887071;29;20052;-90
2022/07/06 08:32:26;;;;;;;2.45;0.70;;;18.70;99.90;;;;;;4895287;29;20090;-89
2022/07/06 08:34:52;;;;;;;7.15;0.60;;;19.60;99.90;;;;;;4887390;29;20084;-90
2022/07/06 08:37:19;;;;;;;2.70;0.60;;;19.80;99.90;;;;;;4900303;29;20059;-90
2022/07/06 08:39:45;;;;;;;2.80;0.50;;;19.60;99.90;;;;;;4884992;29;20127;-89
2022/07/06 08:42:12;;;;;;;5.47;0.50;;;19.50;99.90;;;;;;4902121;29;20119;-89
2022/07/06 08:44:38;;;;;;;4.20;0.50;;;19.30;99.90;;;;;;4868618;29;20066;-89
2022/07/06 08:47:06;;;;;;;3.35;0.52;;;19.10;99.90;;;;;;4879758;29;20475;-88
2022/07/06 08:49:37;;;;;;;3.00;0.50;;;19.20;99.90;;;;;;4854868;29;20091;-89
2022/07/06 08:52:04;;;;;;;3.80;0.50;;;19.60;99.90;;;;;;4885748;29;20056;-90
2022/07/06 08:54:30;;;;;;;4.75;0.60;;;20.20;99.90;;;;;;4873824;29;20064;-89
2022/07/06 08:56:56;;;;;;;3.25;0.40;;;20.80;99.90;;;;;;4894641;29;20099;-89
2022/07/06 08:59:21;;;;;;;4.15;0.60;;;21.10;99.90;;;;;;4872891;29;20048;-90
2022/07/06 09:01:48;;;;;;;2.25;0.50;;;21.20;99.90;;;;;;4861815;29;20052;-90
2022/07/06 09:04:16;;;;;;;1.48;0.40;;;21.40;99.90;;;;;;4901733;29;20053;-90
2022/07/06 09:06:45;;;;;;;7.43;0.40;;;21.70;99.90;;;;;;4878400;29;20052;-90
2022/07/06 09:09:16;;;;;;;1.90;0.20;;;21.70;99.90;;;;;;4894408;29;20565;-90
2022/07/06 09:11:42;;;;;;;2.60;0.50;;;22.10;99.90;;;;;;4917626;29;20050;-90
2022/07/06 09:14:09;;;;;;;3.40;0.47;;;22.60;99.90;;;;;;4883529;29;20405;-89
2022/07/06 09:16:35;;;;;;;2.42;0.57;;;23.20;1.00;;;;;;4886183;29;20075;-89
2022/07/06 09:19:01;;;;;;;2.47;0.40;;;23.40;1.00;;;;;;4868393;29;20128;-89
2022/07/06 09:21:32;;;;;;;1.70;0.20;;;23.60;99.90;;;;;;4912747;29;20243;-89
2022/07/06 09:24:00;;;;;;;3.95;0.57;;;23.50;99.90;;;;;;4866522;29;20056;-90
2022/07/06 09:26:26;;;;;;;8.57;0.80;;;22.90;99.90;;;;;;4894457;29;20132;-88
2022/07/06 09:28:52;;;;;;;4.13;0.40;;;22.70;21.00;;;;;;4878812;29;20487;-89
2022/07/06 09:31:18;;;;;;;4.32;0.32;;;22.50;4.10;;;;;;4894493;29;20104;-89
2022/07/06 09:33:59;;;;;;;3.08;0.68;;;22.10;20.20;;;;;;4894022;29;20037;-89
2022/07/06 09:36:39;;;;;;;3.65;0.47;;;22.70;63.10;;;;;;4882573;29;20052;-88
2022/07/06 09:39:28;;;;;;;4.57;0.35;;;23.10;77.80;;;;;;4871945;29;20057;-89
2022/07/06 09:41:59;;;;;;;4.45;0.30;;;23.30;70.50;;;;;;4893086;29;20045;-89
2022/07/06 09:44:26;;;;;;;1.85;0.40;;;23.00;1.00;;;;;;4879263;29;20432;-89
2022/07/06 09:46:54;;;;;;;4.10;0.50;;;22.40;1.00;;;;;;4850620;29;20051;-90
2022/07/06 09:49:21;;;;;;;2.75;0.47;;;21.90;1.00;;;;;;4854819;29;20057;-89
2022/07/06 09:51:50;;;;;;;5.93;0.40;;;21.60;1.00;;;;;;4845888;29;20049;-88
2022/07/06 09:54:16;;;;;;;6.07;0.80;;;21.50;1.00;;;;;;4860805;29;20089;-89
2022/07/06 09:56:47;;;;;;;4.93;0.70;;;21.50;1.00;;;;;;4864724;29;20048;-90
2022/07/06 09:59:15;;;;;;;4.20;0.38;;;21.60;1.00;;;;;;4891419;29;20048;-89
2022/07/06 10:01:41;;;;;;;1.08;0.30;;;22.00;1.00;;;;;;4871824;29;20052;-89
2022/07/06 10:04:09;;;;;;;2.17;0.50;;;22.40;1.00;;;;;;4871028;29;20087;-88
2022/07/06 10:06:35;;;;;;;4.53;1.08;;;22.50;1.00;;;;;;4882143;29;20073;-88
2022/07/06 10:09:05;;;;;;;4.15;0.63;;;22.70;1.00;;;;;;4883902;29;20495;-88
2022/07/06 10:11:36;;;;;;;2.90;0.32;;;23.20;1.00;;;;;;4897383;29;20041;-89
2022/07/06 10:14:04;;;;;;;3.72;0.50;;;23.60;99.90;;;;;;4876091;29;20053;-88
2022/07/06 10:16:30;;;;;;;3.80;0.52;;;24.20;1.00;;;;;;4898846;29;20405;-89
2022/07/06 10:18:58;;;;;;;3.20;0.40;;;24.20;1.00;;;;;;4881308;29;20049;-89
2022/07/06 10:21:24;;;;;;;3.05;0.40;;;23.60;94.30;;;;;;4897671;29;20132;-89
2022/07/06 10:23:51;;;;;;;3.15;0.60;;;23.20;1.00;;;;;;4872029;29;20559;-89
2022/07/06 10:26:18;;;;;;;2.95;0.40;;;23.40;1.00;;;;;;4869138;29;20467;-89
2022/07/06 10:28:46;;;;;;;2.92;0.30;;;23.60;28.00;;;;;;4877440;29;20104;-88
2022/07/06 10:31:16;;;;;;;2.28;0.45;;;23.80;1.00;;;;;;4897371;29;20099;-88
2022/07/06 10:33:43;;;;;;;1999.90;999.90;;;24.70;2.40;;;;;;4857064;29;20059;-89
2022/07/06 10:36:10;;;;;;;1999.90;999.90;;;25.90;99.90;;;;;;4883940;29;20432;-89
2022/07/06 10:38:36;;;;;;;1999.90;999.90;;;27.00;99.90;;;;;;4875401;29;20059;-88
2022/07/06 10:41:06;;;;;;;1999.90;999.90;;;27.30;99.90;;;;;;4896228;29;20041;-89
2022/07/06 10:43:41;;;;;;;1999.90;999.90;;;27.30;99.90;;;;;;4906412;29;20052;-88
2022/07/06 10:46:11;;;;;;;1999.90;999.90;;;26.50;99.90;;;;;;4898032;29;20076;-88
2022/07/06 10:48:39;;;;;;;96.13;91.25;;;25.30;99.90;;;;;;4896323;29;20056;-89
2022/07/06 10:51:05;;;;;;;79.80;75.75;;;24.30;99.90;;;;;;4880894;29;20276;-88
2022/07/06 10:53:38;;;;;;;27.38;25.92;;;23.90;99.90;;;;;;4896706;29;20446;-88
2022/07/06 10:56:11;;;;;;;1.77;1.10;;;23.80;99.90;;;;;;4893743;29;20131;-88
2022/07/06 10:58:37;;;;;;;155.15;146.65;;;23.90;99.90;;;;;;4859367;29;20132;-88
2022/07/06 11:01:04;;;;;;;1999.90;999.90;;;23.00;99.90;;;;;;4892880;29;20139;-88
2022/07/06 11:03:33;;;;;;;3.05;0.30;;;23.20;79.50;;;;;;4868417;29;20052;-88
2022/07/06 11:06:13;;;;;;;3.05;0.60;;;24.00;49.20;;;;;;4904061;29;20119;-88
2022/07/06 11:08:58;;;;;;;1.83;0.40;;;24.80;99.90;;;;;;4895123;29;20510;-87
2022/07/06 11:11:24;;;;;;;1.77;0.30;;;24.50;1.00;;;;;;4896336;29;20048;-88
2022/07/06 11:13:59;;;;;;;2.72;0.40;;;23.90;1.00;;;;;;4902663;29;20044;-89
2022/07/06 11:16:26;;;;;;;2.28;0.70;;;23.60;1.00;;;;;;4888924;29;20059;-88
2022/07/06 11:19:03;;;;;;;1.20;0.50;;;23.70;1.00;;;;;;4886063;29;20100;-89
2022/07/06 11:21:35;;;;;;;3.22;0.57;;;23.80;1.00;;;;;;4903649;29;20132;-89
2022/07/06 11:24:01;;;;;;;2.40;0.40;;;23.40;1.00;;;;;;4887214;29;20545;-89
2022/07/06 11:26:27;;;;;;;2.20;0.50;;;24.30;1.00;;;;;;4903190;29;20417;-88
2022/07/06 11:28:53;;;;;;;1.92;0.40;;;25.50;1.00;;;;;;4864400;29;20111;-89
2022/07/06 11:31:19;;;;;;;6.00;0.60;;;26.80;1.00;;;;;;4880039;29;20056;-85
2022/07/06 11:33:46;;;;;;;5.10;0.63;;;26.70;45.50;;;;;;4896114;29;20554;-88
2022/07/06 11:36:16;;;;;;;4.25;0.50;;;25.50;99.90;;;;;;4884200;29;20062;-89
2022/07/06 11:38:42;;;;;;;3.83;0.57;;;24.10;23.70;;;;;;4892899;29;20052;-89
2022/07/06 11:41:09;;;;;;;1.50;0.30;;;23.20;1.00;;;;;;4877227;29;20076;-89
2022/07/06 11:43:37;;;;;;;0.63;0.30;;;22.70;1.00;;;;;;4880231;29;20506;-89
2022/07/06 11:46:03;;;;;;;2.53;0.60;;;23.20;1.00;;;;;;4873776;29;20210;-88
2022/07/06 11:48:28;;;;;;;2.35;0.60;;;24.50;1.00;;;;;;4902003;29;20525;-89
2022/07/06 11:51:02;;;;;;;5.72;0.63;;;25.90;1.00;;;;;;4878702;29;20096;-89
2022/07/06 11:53:28;;;;;;;1.42;0.40;;;26.90;4.30;;;;;;4880233;29;20067;-89
2022/07/06 11:55:54;;;;;;;4.72;0.40;;;26.50;99.90;;;;;;4879220;29;20049;-88
2022/07/06 11:58:23;;;;;;;1.75;0.50;;;25.30;99.90;;;;;;4895494;29;20467;-89
2022/07/06 12:01:06;;;;;;;2.88;0.57;;;24.40;99.90;;;;;;4908247;29;20048;-90
2022/07/06 12:03:32;;;;;;;6.53;0.55;;;23.80;99.90;;;;;;4902122;29;20052;-88
2022/07/06 12:05:59;;;;;;;4.43;0.80;;;23.40;99.90;;;;;;4873531;29;20045;-89
2022/07/06 12:08:24;;;;;;;2.88;0.50;;;22.90;40.80;;;;;;4879880;29;20048;-88
2022/07/06 12:10:50;;;;;;;3.47;0.63;;;22.60;1.00;;;;;;4888626;29;20052;-89
2022/07/06 12:13:16;;;;;;;4.00;0.60;;;23.10;1.00;;;;;;4879489;29;20134;-89
2022/07/06 12:15:41;;;;;;;5.15;0.77;;;24.90;1.00;;;;;;4879399;29;20052;-89
2022/07/06 12:18:07;;;;;;;2.85;0.60;;;26.90;1.00;;;;;;4885357;29;20076;-89
2022/07/06 12:20:33;;;;;;;1.83;0.50;;;28.50;97.00;;;;;;4865987;29;20054;-89
2022/07/06 12:23:03;;;;;;;3.53;0.38;;;28.10;99.90;;;;;;4879548;29;20052;-89
2022/07/06 12:25:36;;;;;;;1.73;0.45;;;26.50;99.90;;;;;;4904661;29;20045;-90
2022/07/06 12:28:02;;;;;;;1.70;0.40;;;26.70;99.90;;;;;;4894725;29;20055;-89
2022/07/06 12:30:28;;;;;;;5.07;0.60;;;25.60;99.90;;;;;;4894835;29;20494;-89
2022/07/06 12:33:18;;;;;;;1.63;0.40;;;24.60;94.10;;;;;;4902886;29;20079;-90
2022/07/06 12:35:44;;;;;;;2.83;0.40;;;23.50;99.90;;;;;;4893994;29;20083;-89
2022/07/06 12:38:10;;;;;;;3.78;0.50;;;23.20;1.00;;;;;;4891135;29;20071;-90
2022/07/06 12:40:37;;;;;;;3.25;0.90;;;23.20;1.00;;;;;;4845777;29;20406;-89
2022/07/06 12:43:06;;;;;;;3.60;0.45;;;23.10;1.00;;;;;;4869447;29;20498;-88
2022/07/06 12:45:32;;;;;;;2.60;0.50;;;22.80;1.00;;;;;;4884844;29;20044;-89
2022/07/06 12:48:05;;;;;;;2.58;0.80;;;22.70;1.00;;;;;;4872465;29;20041;-89
2022/07/06 12:50:36;;;;;;;5.32;0.50;;;22.70;1.00;;;;;;4890210;29;20503;-89